Time;durP1;ratioP1;P1;durP2;ratioP2;P2;SDS_P1;SDS_P2;PMS_P1;PMS_P2;Temp;Humidity;BMP_temperature;BMP_pressure;BME280_temperature;BME280_humidity;BME280_pressure;Samples;Min_cycle;Max_cycle;Signal;HPM_P1;HPM_P2
2023/05/25 00:01:35;;;;;;;24.05;10.50;;;;;;;7.86;100.00;102415.00;5094883;28;20472;-49
2023/05/25 00:04:04;;;;;;;24.70;11.15;;;;;;;7.80;100.00;102417.16;5094203;28;20027;-48
2023/05/25 00:06:31;;;;;;;27.08;12.02;;;;;;;7.82;100.00;102413.00;5094552;28;20051;-49
2023/05/25 00:08:56;;;;;;;23.33;11.18;;;;;;;7.82;100.00;102414.69;5094880;28;20028;-50
2023/05/25 00:11:26;;;;;;;22.98;11.45;;;;;;;7.78;100.00;102416.16;5093978;28;20028;-49
2023/05/25 00:13:51;;;;;;;23.88;12.10;;;;;;;7.81;100.00;102413.81;5094867;28;20107;-49
2023/05/25 00:16:17;;;;;;;20.70;11.30;;;;;;;7.79;100.00;102417.06;5094391;28;20107;-50
2023/05/25 00:18:42;;;;;;;20.00;11.00;;;;;;;7.79;100.00;102409.38;5093601;28;20040;-48
2023/05/25 00:21:08;;;;;;;25.08;11.30;;;;;;;7.79;100.00;102407.69;5094611;28;20078;-51
2023/05/25 00:23:33;;;;;;;21.73;11.10;;;;;;;7.75;100.00;102415.97;5094275;28;20028;-48
2023/05/25 00:25:59;;;;;;;21.15;10.13;;;;;;;7.75;100.00;102416.84;5093869;28;20032;-48
2023/05/25 00:28:24;;;;;;;19.63;10.02;;;;;;;7.72;100.00;102411.53;5094280;28;20027;-49
2023/05/25 00:30:50;;;;;;;21.42;10.52;;;;;;;7.68;100.00;102413.75;5094443;28;20028;-51
2023/05/25 00:33:15;;;;;;;21.50;11.05;;;;;;;7.63;100.00;102413.47;5093619;28;20380;-50
2023/05/25 00:35:42;;;;;;;22.98;10.38;;;;;;;7.65;100.00;102418.72;5094326;28;20035;-52
2023/05/25 00:38:17;;;;;;;21.60;9.82;;;;;;;7.59;100.00;102419.16;5094277;28;20051;-52
2023/05/25 00:40:44;;;;;;;23.13;10.60;;;;;;;7.56;100.00;102426.66;5094107;28;20081;-50
2023/05/25 00:43:10;;;;;;;18.08;9.25;;;;;;;7.51;100.00;102421.22;5094245;28;20024;-48
2023/05/25 00:45:36;;;;;;;21.45;9.52;;;;;;;7.44;100.00;102419.03;5093087;28;20958;-50
2023/05/25 00:48:02;;;;;;;17.65;9.52;;;;;;;7.45;100.00;102425.03;5093967;28;20027;-51
2023/05/25 00:50:41;;;;;;;18.67;10.35;;;;;;;7.48;100.00;102430.41;5093750;28;20039;-48
2023/05/25 00:53:09;;;;;;;19.70;10.18;;;;;;;7.44;100.00;102419.03;5093360;28;20043;-48
2023/05/25 00:55:37;;;;;;;;;;;;;;;7.52;100.00;102417.00;5093699;28;20020;-50
2023/05/25 00:58:04;;;;;;;21.75;10.15;;;;;;;7.40;100.00;102422.19;5093854;28;20271;-50
2023/05/25 01:00:32;;;;;;;17.87;10.00;;;;;;;7.31;100.00;102419.88;5092900;28;20024;-51
2023/05/25 01:02:58;;;;;;;21.10;9.73;;;;;;;7.28;100.00;102427.34;5093770;28;20404;-48
2023/05/25 01:05:27;;;;;;;20.85;9.43;;;;;;;7.18;100.00;102430.06;5093410;28;20024;-49
2023/05/25 01:07:55;;;;;;;21.90;9.93;;;;;;;7.16;100.00;102422.28;5092885;28;20375;-51
2023/05/25 01:10:23;;;;;;;21.27;10.10;;;;;;;7.12;100.00;102434.78;5093447;28;20020;-49
2023/05/25 01:12:51;;;;;;;20.17;9.48;;;;;;;7.09;100.00;102432.91;5093702;28;20050;-47
2023/05/25 01:15:17;;;;;;;19.65;9.98;;;;;;;7.03;100.00;102433.34;5092444;28;20043;-48
2023/05/25 01:17:43;;;;;;;21.30;9.75;;;;;;;7.00;100.00;102428.03;5093222;28;20400;-50
2023/05/25 01:20:09;;;;;;;18.67;9.45;;;;;;;7.02;100.00;102430.69;5093695;28;20518;-51
2023/05/25 01:22:50;;;;;;;20.30;9.63;;;;;;;6.99;100.00;102435.63;5092709;28;20026;-48
2023/05/25 01:25:22;;;;;;;21.70;9.95;;;;;;;6.92;100.00;102435.19;5093323;28;20099;-51
2023/05/25 01:27:53;;;;;;;17.35;9.88;;;;;;;6.89;100.00;102436.63;5092570;28;20040;-48
2023/05/25 01:30:24;;;;;;;21.55;10.00;;;;;;;6.85;100.00;102445.78;5093295;28;20055;-48
2023/05/25 01:32:49;;;;;;;18.92;9.70;;;;;;;6.83;100.00;102446.44;5093391;28;20028;-51
2023/05/25 01:35:16;;;;;;;19.00;10.45;;;;;;;6.74;100.00;102451.84;5092652;28;20031;-51
2023/05/25 01:37:45;;;;;;;17.88;10.13;;;;;;;6.71;100.00;102451.59;5093188;28;20026;-49
2023/05/25 01:40:12;;;;;;;16.17;9.85;;;;;;;6.65;100.00;102452.06;5093217;28;20016;-48
2023/05/25 01:42:37;;;;;;;23.80;9.50;;;;;;;6.60;100.00;102445.72;5092197;28;20024;-48
2023/05/25 01:45:03;;;;;;;21.77;9.80;;;;;;;6.61;100.00;102449.16;5093067;28;20089;-49
2023/05/25 01:47:45;;;;;;;20.75;9.85;;;;;;;6.53;100.00;102451.16;5092840;28;20387;-52
2023/05/25 01:50:21;;;;;;;21.38;10.57;;;;;;;6.51;100.00;102453.63;5092576;28;20031;-49
2023/05/25 01:53:02;;;;;;;17.35;10.20;;;;;;;6.51;100.00;102458.75;5093159;28;20028;-48
2023/05/25 01:55:31;;;;;;;22.23;10.57;;;;;;;6.53;100.00;102462.34;5092967;28;20111;-48
2023/05/25 01:57:58;;;;;;;19.45;10.40;;;;;;;6.41;100.00;102456.31;5092122;28;20020;-49
2023/05/25 02:00:26;;;;;;;21.75;10.20;;;;;;;6.41;100.00;102446.06;5092720;28;20412;-49
2023/05/25 02:02:52;;;;;;;21.05;10.10;;;;;;;6.36;100.00;102452.53;5092232;28;20024;-52
2023/05/25 02:05:19;;;;;;;21.10;10.48;;;;;;;6.34;100.00;102448.94;5092588;28;20047;-50
2023/05/25 02:07:45;;;;;;;17.83;11.07;;;;;;;6.34;100.00;102451.50;5093428;28;20059;-52
2023/05/25 02:10:10;;;;;;;23.20;11.60;;;;;;;6.30;100.00;102458.09;5096450;28;20320;-49
2023/05/25 02:12:35;;;;;;;24.35;12.93;;;;;;;6.30;100.00;102455.53;5096712;28;20020;-52
2023/05/25 02:15:01;;;;;;;23.30;14.32;;;;;;;6.28;100.00;102448.53;5097012;28;20107;-47
2023/05/25 02:17:28;;;;;;;28.33;16.40;;;;;;;6.29;100.00;102451.19;5095853;28;20040;-49
2023/05/25 02:19:54;;;;;;;27.15;18.15;;;;;;;6.41;100.00;102443.50;5096933;28;20081;-48
2023/05/25 02:22:20;;;;;;;26.30;20.55;;;;;;;6.28;100.00;102448.53;5096601;28;20023;-49
2023/05/25 02:24:46;;;;;;;29.88;21.77;;;;;;;6.23;100.00;102451.63;5096219;28;20081;-48
2023/05/25 02:27:12;;;;;;;31.95;21.55;;;;;;;6.15;100.00;102455.28;5096704;28;20428;-48
2023/05/25 02:29:38;;;;;;;36.58;23.98;;;;;;;6.17;100.00;102456.31;5096374;28;20059;-50
2023/05/25 02:32:03;;;;;;;30.52;23.55;;;;;;;6.16;100.00;102451.97;5096012;28;20126;-49
2023/05/25 02:34:29;;;;;;;32.92;24.10;;;;;;;6.24;100.00;102453.41;5096398;28;20020;-48
2023/05/25 02:36:54;;;;;;;27.95;22.25;;;;;;;6.12;100.00;102455.09;5096518;28;20028;-48
2023/05/25 02:39:19;;;;;;;31.73;23.60;;;;;;;6.14;100.00;102456.06;5095761;28;20060;-49
2023/05/25 02:41:45;;;;;;;31.55;23.63;;;;;;;6.09;100.00;102453.19;5096415;28;20020;-48
2023/05/25 02:44:10;;;;;;;32.42;23.40;;;;;;;6.01;100.00;102453.41;5096525;28;20031;-52
2023/05/25 02:46:35;;;;;;;33.28;24.13;;;;;;;6.04;100.00;102454.53;5095538;28;20041;-52
2023/05/25 02:49:01;;;;;;;35.40;24.77;;;;;;;6.03;100.00;102449.25;5096411;28;20032;-51
2023/05/25 02:51:27;;;;;;;31.95;25.00;;;;;;;6.09;100.00;102454.84;5096148;28;20024;-49
2023/05/25 02:53:52;;;;;;;32.63;27.13;;;;;;;6.26;100.00;102449.28;5095797;28;20095;-49
2023/05/25 02:56:18;;;;;;;36.28;28.70;;;;;;;6.33;100.00;102457.44;5096151;28;20119;-49
2023/05/25 02:58:43;;;;;;;35.90;27.63;;;;;;;6.22;100.00;102457.53;5096302;28;20058;-49
2023/05/25 03:01:09;;;;;;;37.70;25.52;;;;;;;6.19;100.00;102459.84;5095467;28;20044;-51
2023/05/25 03:03:35;;;;;;;32.00;24.20;;;;;;;6.04;100.00;102448.50;5095783;28;20028;-50
2023/05/25 03:06:02;;;;;;;31.33;22.35;;;;;;;5.84;100.00;102450.44;5095371;28;20371;-51
2023/05/25 03:08:28;;;;;;;28.90;23.40;;;;;;;5.80;100.00;102456.09;5095897;28;20024;-50
2023/05/25 03:10:53;;;;;;;30.95;24.90;;;;;;;5.88;100.00;102457.56;5096159;28;20020;-50
2023/05/25 03:13:19;;;;;;;33.53;24.13;;;;;;;5.96;100.00;102462.38;5094978;28;20024;-49
2023/05/25 03:15:44;;;;;;;30.40;23.45;;;;;;;5.89;100.00;102471.25;5095851;28;20031;-47
2023/05/25 03:18:09;;;;;;;32.00;22.45;;;;;;;5.86;100.00;102469.38;5095384;28;20161;-50
2023/05/25 03:20:35;;;;;;;32.60;23.85;;;;;;;5.83;100.00;102468.22;5094427;28;20028;-48
2023/05/25 03:23:01;;;;;;;32.35;25.13;;;;;;;5.76;100.00;102479.69;5095825;28;20052;-52
2023/05/25 03:25:26;;;;;;;31.75;25.35;;;;;;;5.75;100.00;102480.44;5095314;28;20020;-48
2023/05/25 03:27:55;;;;;;;32.20;25.95;;;;;;;5.73;100.00;102481.97;5094915;28;20046;-47
2023/05/25 03:30:23;;;;;;;40.10;28.58;;;;;;;5.74;100.00;102488.88;5095415;28;20031;-49
2023/05/25 03:32:48;;;;;;;36.47;27.38;;;;;;;5.72;100.00;102491.34;5095428;28;20031;-52
2023/05/25 03:35:14;;;;;;;43.30;29.25;;;;;;;5.74;100.00;102492.31;5094551;28;20024;-52
2023/05/25 03:37:39;;;;;;;40.00;28.48;;;;;;;5.81;100.00;102495.34;5095271;28;20029;-52
2023/05/25 03:40:05;;;;;;;39.03;30.02;;;;;;;5.81;100.00;102495.34;5095701;28;20038;-51
2023/05/25 03:42:31;;;;;;;37.20;27.88;;;;;;;5.77;100.00;102500.25;5094241;28;20020;-51
2023/05/25 03:44:56;;;;;;;37.33;26.50;;;;;;;5.74;100.00;102504.25;5095334;28;20077;-50
2023/05/25 03:47:21;;;;;;;35.53;25.80;;;;;;;5.70;100.00;102505.66;5094994;28;20024;-51
2023/05/25 03:49:46;;;;;;;30.25;23.92;;;;;;;5.71;100.00;102506.59;5094456;28;20024;-53
2023/05/25 03:52:12;;;;;;;32.08;23.67;;;;;;;5.72;100.00;102508.34;5095907;28;20028;-51
2023/05/25 03:54:37;;;;;;;36.45;23.00;;;;;;;5.66;100.00;102507.91;5094790;28;20050;-51
2023/05/25 03:57:02;;;;;;;33.65;22.88;;;;;;;5.68;100.00;102519.13;5094219;28;20410;-52
2023/05/25 03:59:28;;;;;;;32.83;22.58;;;;;;;5.66;100.00;102516.44;5094655;28;20032;-52
2023/05/25 04:01:53;;;;;;;33.35;22.42;;;;;;;5.70;100.00;102517.59;5094766;28;20027;-51
2023/05/25 04:04:19;;;;;;;31.95;22.13;;;;;;;5.71;100.00;102514.25;5093840;28;20028;-52
2023/05/25 04:06:47;;;;;;;31.10;21.05;;;;;;;5.73;100.00;102507.56;5094966;28;20035;-51
2023/05/25 04:09:16;;;;;;;33.53;19.42;;;;;;;5.77;100.00;102510.50;5094946;28;20028;-52
2023/05/25 04:11:41;;;;;;;27.90;19.48;;;;;;;5.91;100.00;102508.97;5095023;28;20063;-51
2023/05/25 04:14:06;;;;;;;30.27;18.63;;;;;;;5.93;100.00;102502.28;5094680;28;20062;-50
2023/05/25 04:16:31;;;;;;;26.80;16.58;;;;;;;5.91;100.00;102502.94;5093609;28;20020;-52
2023/05/25 04:18:57;;;;;;;27.35;16.95;;;;;;;6.03;100.00;102505.56;5094500;28;20134;-51
2023/05/25 04:21:22;;;;;;;29.02;17.17;;;;;;;6.14;100.00;102507.25;5094196;28;20099;-52
2023/05/25 04:23:47;;;;;;;27.85;15.82;;;;;;;6.05;100.00;102516.81;5093942;28;20483;-51
2023/05/25 04:26:14;;;;;;;25.10;15.10;;;;;;;6.09;100.00;102508.59;5094514;28;20022;-51
2023/05/25 04:28:39;;;;;;;25.80;15.50;;;;;;;6.09;100.00;102512.06;5094321;28;20024;-52
2023/05/25 04:31:06;;;;;;;24.92;15.88;;;;;;;6.10;100.00;102525.75;5093120;28;20130;-52
2023/05/25 04:33:33;;;;;;;26.60;16.75;;;;;;;6.23;100.00;102520.75;5093931;28;20543;-52
2023/05/25 04:35:59;;;;;;;27.30;16.33;;;;;;;6.21;100.00;102516.28;5094428;28;20161;-51
2023/05/25 04:38:24;;;;;;;21.05;16.05;;;;;;;6.28;100.00;102520.22;5093334;28;20373;-52
2023/05/25 04:40:52;;;;;;;29.20;16.58;;;;;;;6.29;100.00;102529.66;5094291;28;20423;-52
2023/05/25 04:43:19;;;;;;;;;;;;;;;6.37;100.00;102524.34;5094378;28;20024;-53
2023/05/25 04:45:45;;;;;;;26.30;16.25;;;;;;;6.42;100.00;102527.25;5093404;28;20073;-49
2023/05/25 04:48:11;;;;;;;27.10;17.52;;;;;;;6.52;100.00;102526.22;5093919;28;20024;-51
2023/05/25 04:50:40;;;;;;;27.13;17.95;;;;;;;6.55;100.00;102526.47;5093705;28;20487;-49
2023/05/25 04:53:05;;;;;;;29.98;18.58;;;;;;;6.62;100.00;102528.69;5093363;28;20024;-52
2023/05/25 04:55:31;;;;;;;29.88;17.70;;;;;;;6.70;100.00;102536.94;5093675;28;20032;-51
2023/05/25 04:57:56;;;;;;;30.95;18.17;;;;;;;6.83;100.00;102528.47;5093744;28;20058;-49
2023/05/25 05:00:21;;;;;;;37.20;18.13;;;;;;;6.89;100.00;102528.91;5092891;28;20483;-52
2023/05/25 05:02:47;;;;;;;29.48;17.92;;;;;;;7.01;100.00;102529.78;5094061;28;20028;-50
2023/05/25 05:05:12;;;;;;;34.80;18.50;;;;;;;7.10;100.00;102537.22;5093695;28;20367;-51
2023/05/25 05:07:38;;;;;;;29.38;18.20;;;;;;;7.18;100.00;102542.88;5092613;28;20039;-51
2023/05/25 05:10:04;;;;;;;32.10;18.40;;;;;;;7.24;100.00;102539.13;5093838;28;20095;-52
2023/05/25 05:12:29;;;;;;;29.10;17.60;;;;;;;7.33;100.00;102533.72;5093239;28;20383;-52
2023/05/25 05:14:55;;;;;;;29.70;18.65;;;;;;;7.44;100.00;102537.03;5092820;28;20024;-51
2023/05/25 05:17:21;;;;;;;32.17;18.75;;;;;;;7.52;100.00;102535.00;5092955;28;20047;-52
2023/05/25 05:19:47;;;;;;;32.28;16.95;;;;;;;7.57;100.00;102539.66;5092911;28;20020;-52
2023/05/25 05:22:14;;;;;;;31.98;17.30;;;;;;;7.69;100.00;102542.19;5093527;28;20031;-51
2023/05/25 05:24:40;;;;;;;31.85;17.00;;;;;;;7.78;100.00;102547.06;5093178;28;20077;-52
2023/05/25 05:27:05;;;;;;;26.58;16.80;;;;;;;7.88;100.00;102551.16;5092797;28;20031;-52
2023/05/25 05:29:30;;;;;;;31.42;17.02;;;;;;;7.95;100.00;102557.59;5092993;28;20028;-53
2023/05/25 05:31:56;;;;;;;24.08;15.65;;;;;;;7.99;100.00;102554.44;5093337;28;20107;-50
2023/05/25 05:34:21;;;;;;;29.17;15.93;;;;;;;8.07;100.00;102553.28;5092454;28;20095;-51
2023/05/25 05:36:46;;;;;;;26.98;15.20;;;;;;;8.19;100.00;102554.09;5093401;28;20027;-52
2023/05/25 05:39:12;;;;;;;26.67;16.25;;;;;;;8.32;100.00;102570.34;5093376;28;20382;-50
2023/05/25 05:41:38;;;;;;;28.10;15.35;;;;;;;8.38;100.00;102566.50;5092208;28;20162;-53
2023/05/25 05:44:03;;;;;;;25.63;14.50;;;;;;;8.39;100.00;102570.84;5093239;28;20103;-52
2023/05/25 05:46:28;;;;;;;26.73;15.30;;;;;;;8.57;100.00;102573.78;5092575;28;20072;-52
2023/05/25 05:48:53;;;;;;;26.15;14.45;;;;;;;8.59;100.00;102576.44;5092489;28;20024;-53
2023/05/25 05:51:19;;;;;;;25.17;14.48;;;;;;;8.68;100.00;102582.19;5092966;28;20028;-51
2023/05/25 05:53:44;;;;;;;21.20;13.60;;;;;;;8.67;100.00;102587.22;5093188;28;20024;-52
2023/05/25 05:56:16;;;;;;;27.83;13.73;;;;;;;8.75;100.00;102580.88;5092268;28;20082;-51
2023/05/25 05:58:41;;;;;;;23.38;13.23;;;;;;;8.78;100.00;102586.25;5092969;28;20423;-52
2023/05/25 06:01:07;;;;;;;21.75;12.48;;;;;;;8.83;100.00;102587.44;5092826;28;20541;-52
2023/05/25 06:03:33;;;;;;;25.80;13.13;;;;;;;8.94;100.00;102590.69;5092136;28;20028;-52
2023/05/25 06:05:58;;;;;;;23.88;13.35;;;;;;;8.96;100.00;102598.50;5093036;28;20016;-52
2023/05/25 06:08:24;;;;;;;24.15;13.68;;;;;;;9.10;100.00;102597.69;5092566;28;20028;-52
2023/05/25 06:10:50;;;;;;;22.27;13.07;;;;;;;9.14;100.00;102597.13;5092192;28;20027;-53
2023/05/25 06:13:15;;;;;;;24.20;12.73;;;;;;;9.32;100.00;102594.81;5092705;28;20024;-50
2023/05/25 06:15:40;;;;;;;21.05;12.73;;;;;;;9.47;100.00;102594.88;5092797;28;20047;-52
2023/05/25 06:18:06;;;;;;;25.05;13.45;;;;;;;9.58;100.00;102592.06;5091940;28;20044;-53
2023/05/25 06:20:31;;;;;;;26.35;11.73;;;;;;;9.65;100.00;102591.66;5092595;28;20033;-51
2023/05/25 06:22:57;;;;;;;20.73;11.70;;;;;;;9.78;100.00;102598.47;5092198;28;20051;-52
2023/05/25 06:25:22;;;;;;;22.27;11.70;;;;;;;9.80;100.00;102600.34;5092348;28;20040;-52
2023/05/25 06:27:48;;;;;;;17.30;10.43;;;;;;;9.93;100.00;102601.97;5092491;28;20027;-52
2023/05/25 06:30:13;;;;;;;24.27;10.55;;;;;;;10.00;100.00;102598.06;5091803;28;20028;-50
2023/05/25 06:32:38;;;;;;;19.80;11.15;;;;;;;10.05;100.00;102600.09;5092480;28;20020;-52
2023/05/25 06:35:04;;;;;;;17.27;10.77;;;;;;;10.08;100.00;102620.00;5092815;28;20024;-52
2023/05/25 06:37:34;;;;;;;16.23;8.93;;;;;;;10.10;100.00;102610.69;5091633;28;20426;-50
2023/05/25 06:40:00;;;;;;;17.92;9.50;;;;;;;10.24;100.00;102613.19;5092468;28;20356;-53
2023/05/25 06:42:26;;;;;;;18.42;9.77;;;;;;;10.28;100.00;102615.19;5092310;28;20042;-53
2023/05/25 06:44:51;;;;;;;16.40;8.88;;;;;;;10.19;100.00;102616.41;5091651;28;20446;-53
2023/05/25 06:47:17;;;;;;;19.05;9.40;;;;;;;10.18;100.00;102627.50;5092241;28;20028;-51
2023/05/25 06:49:42;;;;;;;16.15;8.75;;;;;;;10.16;100.00;102625.63;5092589;28;20027;-53
2023/05/25 06:52:07;;;;;;;21.60;8.80;;;;;;;10.21;100.00;102635.44;5091773;28;20476;-53
2023/05/25 06:54:33;;;;;;;16.70;8.65;;;;;;;10.28;100.00;102633.22;5093922;28;20035;-51
2023/05/25 06:56:58;;;;;;;16.30;8.88;;;;;;;10.26;100.00;102633.09;5096182;28;20430;-48
2023/05/25 06:59:23;;;;;;;16.98;9.48;;;;;;;10.31;100.00;102631.69;5094987;28;20032;-49
2023/05/25 07:01:48;;;;;;;17.73;8.90;;;;;;;10.38;100.00;102633.00;5096262;28;20028;-52
2023/05/25 07:04:14;;;;;;;15.52;8.43;;;;;;;10.46;100.00;102631.75;5096339;28;20031;-52
2023/05/25 07:06:39;;;;;;;15.45;8.70;;;;;;;10.83;100.00;102627.84;5095159;28;20023;-47
2023/05/25 07:09:05;;;;;;;19.05;9.00;;;;;;;11.12;100.00;102639.81;5096009;28;20055;-53
2023/05/25 07:11:30;;;;;;;18.35;8.60;;;;;;;11.36;100.00;102631.63;5095789;28;20024;-53
2023/05/25 07:13:55;;;;;;;16.15;7.80;;;;;;;11.42;100.00;102631.97;5095045;28;20024;-51
2023/05/25 07:16:21;;;;;;;19.50;8.88;;;;;;;11.51;100.00;102632.47;5095773;28;20020;-51
2023/05/25 07:18:46;;;;;;;18.75;8.60;;;;;;;11.69;100.00;102637.75;5095607;28;20040;-53
2023/05/25 07:21:12;;;;;;;16.00;8.10;;;;;;;11.89;100.00;102634.47;5095003;28;20024;-52
2023/05/25 07:23:39;;;;;;;14.57;7.40;;;;;;;11.98;100.00;102634.97;5095537;28;20395;-52
2023/05/25 07:26:05;;;;;;;;;;;;;;;12.17;100.00;102635.16;5096016;28;20141;-52
2023/05/25 07:28:30;;;;;;;19.63;7.97;;;;;;;12.48;100.00;102628.94;5094474;28;19998;-51
2023/05/25 07:30:55;;;;;;;13.18;6.57;;;;;;;12.72;100.00;102636.16;5095780;28;20031;-51
2023/05/25 07:33:21;;;;;;;13.93;7.90;;;;;;;12.94;98.78;102643.28;5094692;28;20024;-52
2023/05/25 07:35:46;;;;;;;18.00;6.38;;;;;;;13.07;96.14;102636.97;5095506;28;20433;-52
2023/05/25 07:38:11;;;;;;;13.68;6.05;;;;;;;13.13;94.20;102639.88;5095550;28;20028;-49
2023/05/25 07:40:37;;;;;;;15.32;6.68;;;;;;;13.04;90.70;102641.13;5094394;28;20028;-53
2023/05/25 07:43:02;;;;;;;16.52;6.57;;;;;;;13.30;93.34;102638.06;5095336;28;20051;-53
2023/05/25 07:45:27;;;;;;;13.23;6.30;;;;;;;13.25;91.46;102642.16;5094925;28;20464;-51
2023/05/25 07:47:53;;;;;;;17.20;6.80;;;;;;;13.37;91.11;102641.88;5094636;28;20484;-53
2023/05/25 07:50:18;;;;;;;15.38;6.60;;;;;;;13.46;91.43;102650.06;5095215;28;20516;-53
2023/05/25 07:52:45;;;;;;;16.15;6.28;;;;;;;13.58;90.91;102643.69;5095103;28;20428;-53
2023/05/25 07:55:10;;;;;;;14.30;6.40;;;;;;;13.45;88.79;102652.59;5094479;28;20020;-52
2023/05/25 07:57:35;;;;;;;14.23;6.63;;;;;;;13.63;88.59;102647.38;5094648;28;20028;-53
2023/05/25 08:00:01;;;;;;;12.00;5.70;;;;;;;13.62;87.05;102643.00;5095228;28;20532;-51
2023/05/25 08:02:26;;;;;;;18.35;6.43;;;;;;;13.94;89.81;102647.06;5094157;28;20055;-53
2023/05/25 08:04:52;;;;;;;16.55;6.57;;;;;;;14.12;87.92;102649.56;5094533;28;20434;-54
2023/05/25 08:07:18;;;;;;;17.40;6.75;;;;;;;14.20;85.21;102656.81;5093929;28;20031;-53
2023/05/25 08:09:44;;;;;;;13.55;6.25;;;;;;;14.08;81.75;102655.44;5093943;28;20020;-52
2023/05/25 08:12:09;;;;;;;13.75;5.80;;;;;;;14.13;82.09;102653.94;5094975;28;20028;-52
2023/05/25 08:14:35;;;;;;;15.98;6.00;;;;;;;14.31;82.29;102663.34;5094402;28;20031;-53
2023/05/25 08:17:01;;;;;;;11.93;5.35;;;;;;;14.58;82.61;102662.78;5093865;28;20039;-53
2023/05/25 08:19:27;;;;;;;12.38;5.55;;;;;;;14.74;81.52;102662.59;5094428;28;20103;-53
2023/05/25 08:21:52;;;;;;;11.32;5.25;;;;;;;14.92;80.66;102661.59;5094694;28;20118;-53
2023/05/25 08:24:17;;;;;;;12.27;5.72;;;;;;;14.89;78.98;102658.88;5093411;28;20027;-53
2023/05/25 08:26:43;;;;;;;17.63;5.95;;;;;;;14.99;78.08;102666.22;5094253;28;20028;-52
2023/05/25 08:29:09;;;;;;;15.13;5.47;;;;;;;14.97;77.63;102665.25;5094284;28;20498;-53
2023/05/25 08:31:36;;;;;;;12.27;5.00;;;;;;;15.33;78.25;102661.50;5093627;28;20024;-52
2023/05/25 08:34:01;;;;;;;15.75;5.65;;;;;;;15.55;77.89;102663.19;5094500;28;20144;-53
2023/05/25 08:36:26;;;;;;;17.63;5.78;;;;;;;15.62;76.87;102666.09;5094089;28;20024;-52
2023/05/25 08:38:52;;;;;;;12.32;4.68;;;;;;;15.80;73.95;102667.59;5093577;28;20023;-53
2023/05/25 08:41:18;;;;;;;17.50;5.57;;;;;;;16.04;72.81;102665.03;5093797;28;20074;-52
2023/05/25 08:43:44;;;;;;;14.75;5.10;;;;;;;16.16;73.13;102668.91;5093617;28;20028;-53
2023/05/25 08:46:10;;;;;;;11.18;4.95;;;;;;;16.48;72.56;102674.38;5094198;28;20520;-53
2023/05/25 08:48:36;;;;;;;12.60;4.82;;;;;;;16.50;71.54;102670.09;5093761;28;20032;-53
2023/05/25 08:51:09;;;;;;;14.35;5.20;;;;;;;16.37;69.33;102669.69;5093833;28;20069;-48
2023/05/25 08:53:38;;;;;;;14.45;4.80;;;;;;;16.45;67.45;102672.56;5093775;28;20428;-51
2023/05/25 08:56:09;;;;;;;14.93;5.47;;;;;;;16.70;69.81;102671.66;5093896;28;20361;-50
2023/05/25 08:58:42;;;;;;;11.85;4.95;;;;;;;16.66;69.13;102677.59;5093046;28;20019;-52
2023/05/25 09:01:08;;;;;;;12.38;4.93;;;;;;;16.84;70.22;102673.84;5094024;28;20031;-52
2023/05/25 09:03:35;;;;;;;14.25;5.25;;;;;;;16.66;68.81;102675.00;5093596;28;20017;-52
2023/05/25 09:06:01;;;;;;;15.65;5.13;;;;;;;16.50;68.56;102685.69;5092969;28;20353;-51
2023/05/25 09:08:27;;;;;;;15.63;5.28;;;;;;;16.32;68.00;102680.75;5093263;28;20031;-51
2023/05/25 09:10:54;;;;;;;22.75;5.10;;;;;;;16.09;66.91;102683.44;5093637;28;20414;-49
2023/05/25 09:13:20;;;;;;;14.77;4.95;;;;;;;16.00;68.82;102689.16;5092484;28;20051;-51
2023/05/25 09:15:45;;;;;;;13.73;4.90;;;;;;;15.70;68.08;102688.88;5093529;28;20062;-51
2023/05/25 09:18:10;;;;;;;15.82;5.47;;;;;;;15.74;71.42;102683.84;5093064;28;20040;-51
2023/05/25 09:20:35;;;;;;;15.85;4.85;;;;;;;15.81;69.22;102679.78;5092481;28;20103;-50
2023/05/25 09:23:02;;;;;;;13.27;5.03;;;;;;;15.82;67.90;102688.50;5093557;28;20464;-50
2023/05/25 09:25:27;;;;;;;11.15;4.38;;;;;;;15.75;66.88;102684.72;5093036;28;20023;-53
2023/05/25 09:27:56;;;;;;;12.77;4.38;;;;;;;15.76;67.51;102690.00;5092709;28;20031;-53
2023/05/25 09:30:22;;;;;;;10.35;4.00;;;;;;;15.72;68.25;102684.63;5093135;28;20047;-52
2023/05/25 09:32:47;;;;;;;10.93;4.05;;;;;;;15.57;67.74;102687.50;5093084;28;20062;-54
2023/05/25 09:35:14;;;;;;;16.85;3.92;;;;;;;15.40;67.48;102690.38;5092954;28;20048;-52
2023/05/25 09:37:40;;;;;;;13.95;4.53;;;;;;;15.11;66.67;102708.25;5092996;28;20032;-53
2023/05/25 09:40:07;;;;;;;15.05;4.50;;;;;;;15.25;70.35;102697.56;5092540;28;20027;-53
2023/05/25 09:42:33;;;;;;;13.30;5.07;;;;;;;15.13;68.85;102696.22;5093026;28;20031;-51
2023/05/25 09:45:01;;;;;;;12.00;4.13;;;;;;;15.12;69.00;102694.44;5093195;28;20028;-52
2023/05/25 09:47:27;;;;;;;13.60;4.50;;;;;;;15.11;70.01;102695.25;5092044;28;20024;-53
2023/05/25 09:49:52;;;;;;;16.27;5.13;;;;;;;15.13;70.21;102697.91;5093081;28;20023;-53
2023/05/25 09:52:18;;;;;;;16.25;5.75;;;;;;;15.23;71.50;102697.47;5092921;28;20473;-53
2023/05/25 09:54:45;;;;;;;12.52;4.80;;;;;;;15.46;72.66;102684.50;5092521;28;20030;-53
2023/05/25 09:57:10;;;;;;;12.43;5.03;;;;;;;15.45;69.29;102696.63;5093105;28;20059;-49
2023/05/25 09:59:36;;;;;;;13.50;4.35;;;;;;;15.48;68.24;102691.53;5092782;28;20059;-52
2023/05/25 10:02:01;;;;;;;12.73;4.93;;;;;;;15.78;69.85;102687.47;5092336;28;20061;-53
2023/05/25 10:04:26;;;;;;;15.30;5.07;;;;;;;15.90;67.86;102697.47;5092700;28;20035;-52
2023/05/25 10:06:52;;;;;;;12.90;4.65;;;;;;;16.03;67.30;102693.59;5092679;28;20031;-52
2023/05/25 10:09:19;;;;;;;9.77;4.47;;;;;;;16.12;65.59;102699.13;5091989;28;20036;-54
2023/05/25 10:11:44;;;;;;;15.05;4.55;;;;;;;16.12;66.25;102700.00;5092800;28;20024;-52
2023/05/25 10:14:14;;;;;;;13.40;4.95;;;;;;;16.21;66.57;102699.47;5092904;28;20022;-52
2023/05/25 10:16:42;;;;;;;12.95;4.53;;;;;;;16.38;65.27;102701.78;5091631;28;20468;-53
2023/05/25 10:19:10;;;;;;;;;;;;;;;16.70;66.79;102695.06;5092857;28;20040;-53
2023/05/25 10:21:36;;;;;;;15.95;4.45;;;;;;;16.94;62.27;102702.88;5092078;28;20283;-52
2023/05/25 10:24:39;;;;;;;15.75;4.47;;;;;;;16.67;60.87;102704.50;5092179;28;20074;-53
2023/05/25 10:27:12;;;;;;;11.20;4.10;;;;;;;16.59;61.11;102712.03;5069308;28;20048;-52
2023/05/25 10:29:38;;;;;;;11.48;4.22;;;;;;;16.77;61.03;102701.38;5093632;28;20031;-53
2023/05/25 10:32:05;;;;;;;13.98;4.05;;;;;;;17.10;60.71;102696.41;5096672;28;20375;-53
2023/05/25 10:34:30;;;;;;;12.45;3.70;;;;;;;17.81;59.47;102705.53;5096537;28;20024;-53
2023/05/25 10:36:57;;;;;;;8.98;3.40;;;;;;;18.21;56.26;102698.00;5096000;28;20020;-53
2023/05/25 10:39:23;;;;;;;9.75;3.60;;;;;;;18.26;54.47;102699.88;5096554;28;20102;-53
2023/05/25 10:41:50;;;;;;;9.15;3.85;;;;;;;18.19;54.92;102704.88;5096648;28;20024;-50
2023/05/25 10:44:16;;;;;;;12.80;4.35;;;;;;;17.85;54.62;102709.13;5095480;28;20024;-53
2023/05/25 10:46:42;;;;;;;12.52;4.38;;;;;;;17.70;56.47;102714.75;5096646;28;20032;-53
2023/05/25 10:49:09;;;;;;;11.10;3.92;;;;;;;17.56;56.89;102711.75;5096662;28;20020;-53
2023/05/25 10:51:38;;;;;;;14.20;4.25;;;;;;;17.52;56.83;102704.66;5095472;28;20020;-53
2023/05/25 10:54:04;;;;;;;11.43;4.22;;;;;;;18.79;54.82;102695.16;5096412;28;20043;-53
2023/05/25 10:56:29;;;;;;;9.60;3.75;;;;;;;19.52;51.51;102695.13;5096598;28;20060;-53
2023/05/25 10:58:55;;;;;;;10.15;4.07;;;;;;;20.48;47.82;102697.09;5095379;28;20030;-53
2023/05/25 11:01:21;;;;;;;12.48;3.90;;;;;;;20.78;44.70;102708.97;5096137;28;20499;-53
2023/05/25 11:03:54;;;;;;;8.55;3.88;;;;;;;20.31;44.69;102708.13;5096256;28;20016;-54
2023/05/25 11:06:36;;;;;;;10.13;4.20;;;;;;;19.76;46.37;102705.25;5095032;28;20039;-54
2023/05/25 11:09:02;;;;;;;11.30;3.92;;;;;;;19.34;48.46;102693.91;5096062;28;20368;-54
2023/05/25 11:11:44;;;;;;;12.38;4.38;;;;;;;18.94;50.27;102702.50;5095020;28;20077;-53